sensor_id;sensor_type;location;lat;lon;timestamp;P1;durP1;ratioP1;P2;durP2;ratioP2
41546;SDS011;27271;45.412;10.852;2022-08-19T00:01:59;4.47;;;2.40;;
41546;SDS011;27271;45.412;10.852;2022-08-19T00:05:28;7.80;;;3.38;;
41546;SDS011;27271;45.412;10.852;2022-08-19T00:08:54;5.65;;;2.67;;
41546;SDS011;27271;45.412;10.852;2022-08-19T00:12:19;4.35;;;2.55;;
41546;SDS011;27271;45.412;10.852;2022-08-19T00:15:43;6.75;;;2.95;;
41546;SDS011;27271;45.412;10.852;2022-08-19T00:19:07;4.40;;;2.78;;
41546;SDS011;27271;45.412;10.852;2022-08-19T00:22:32;4.22;;;2.85;;
41546;SDS011;27271;45.412;10.852;2022-08-19T00:25:56;4.47;;;2.50;;
41546;SDS011;27271;45.412;10.852;2022-08-19T00:29:23;6.22;;;2.60;;
41546;SDS011;27271;45.412;10.852;2022-08-19T00:32:50;3.33;;;2.22;;
41546;SDS011;27271;45.412;10.852;2022-08-19T00:36:24;4.57;;;2.95;;
41546;SDS011;27271;45.412;10.852;2022-08-19T00:39:51;6.22;;;2.30;;
41546;SDS011;27271;45.412;10.852;2022-08-19T00:43:14;5.72;;;2.50;;
41546;SDS011;27271;45.412;10.852;2022-08-19T00:46:44;7.30;;;2.72;;
41546;SDS011;27271;45.412;10.852;2022-08-19T00:50:19;4.90;;;3.05;;
41546;SDS011;27271;45.412;10.852;2022-08-19T00:53:43;5.55;;;3.22;;
41546;SDS011;27271;45.412;10.852;2022-08-19T00:57:09;9.02;;;4.32;;
41546;SDS011;27271;45.412;10.852;2022-08-19T01:00:37;6.93;;;3.63;;
41546;SDS011;27271;45.412;10.852;2022-08-19T01:04:00;9.43;;;4.75;;
41546;SDS011;27271;45.412;10.852;2022-08-19T01:07:22;8.80;;;4.60;;
41546;SDS011;27271;45.412;10.852;2022-08-19T01:10:47;7.47;;;4.22;;
41546;SDS011;27271;45.412;10.852;2022-08-19T01:14:12;7.72;;;4.97;;
41546;SDS011;27271;45.412;10.852;2022-08-19T01:17:36;11.60;;;5.03;;
41546;SDS011;27271;45.412;10.852;2022-08-19T01:21:02;9.35;;;5.65;;
41546;SDS011;27271;45.412;10.852;2022-08-19T01:24:29;10.43;;;4.63;;
41546;SDS011;27271;45.412;10.852;2022-08-19T01:27:52;9.43;;;4.50;;
41546;SDS011;27271;45.412;10.852;2022-08-19T01:31:24;10.90;;;4.67;;
41546;SDS011;27271;45.412;10.852;2022-08-19T01:34:50;9.13;;;4.82;;
41546;SDS011;27271;45.412;10.852;2022-08-19T01:38:25;11.63;;;4.50;;
41546;SDS011;27271;45.412;10.852;2022-08-19T01:42:05;8.88;;;4.78;;
41546;SDS011;27271;45.412;10.852;2022-08-19T01:45:32;13.43;;;6.50;;
41546;SDS011;27271;45.412;10.852;2022-08-19T01:48:56;11.20;;;5.70;;
41546;SDS011;27271;45.412;10.852;2022-08-19T01:52:19;13.57;;;6.28;;
41546;SDS011;27271;45.412;10.852;2022-08-19T01:55:42;10.85;;;6.18;;
41546;SDS011;27271;45.412;10.852;2022-08-19T01:59:12;11.27;;;6.03;;
41546;SDS011;27271;45.412;10.852;2022-08-19T02:02:40;9.98;;;5.47;;
41546;SDS011;27271;45.412;10.852;2022-08-19T02:06:05;11.70;;;6.88;;
41546;SDS011;27271;45.412;10.852;2022-08-19T02:09:32;13.43;;;6.10;;
41546;SDS011;27271;45.412;10.852;2022-08-19T02:12:55;13.85;;;6.68;;
41546;SDS011;27271;45.412;10.852;2022-08-19T02:16:18;10.70;;;5.78;;
41546;SDS011;27271;45.412;10.852;2022-08-19T02:19:42;11.60;;;6.57;;
41546;SDS011;27271;45.412;10.852;2022-08-19T02:23:06;10.20;;;5.80;;
41546;SDS011;27271;45.412;10.852;2022-08-19T02:26:34;11.50;;;5.93;;
41546;SDS011;27271;45.412;10.852;2022-08-19T02:29:56;11.05;;;5.60;;
41546;SDS011;27271;45.412;10.852;2022-08-19T02:33:20;12.77;;;6.18;;
41546;SDS011;27271;45.412;10.852;2022-08-19T02:36:46;10.48;;;6.03;;
41546;SDS011;27271;45.412;10.852;2022-08-19T02:40:13;11.63;;;5.85;;
41546;SDS011;27271;45.412;10.852;2022-08-19T02:43:37;9.60;;;4.88;;
41546;SDS011;27271;45.412;10.852;2022-08-19T02:47:21;12.38;;;4.82;;
41546;SDS011;27271;45.412;10.852;2022-08-19T02:50:45;11.40;;;6.10;;
41546;SDS011;27271;45.412;10.852;2022-08-19T02:54:15;12.15;;;6.63;;
41546;SDS011;27271;45.412;10.852;2022-08-19T02:57:40;12.90;;;6.30;;
41546;SDS011;27271;45.412;10.852;2022-08-19T03:01:04;10.48;;;5.75;;
41546;SDS011;27271;45.412;10.852;2022-08-19T03:04:28;11.13;;;5.32;;
41546;SDS011;27271;45.412;10.852;2022-08-19T03:07:52;13.48;;;6.38;;
41546;SDS011;27271;45.412;10.852;2022-08-19T03:11:21;11.52;;;5.70;;
41546;SDS011;27271;45.412;10.852;2022-08-19T03:14:49;10.07;;;5.85;;
41546;SDS011;27271;45.412;10.852;2022-08-19T03:18:12;7.43;;;4.88;;
41546;SDS011;27271;45.412;10.852;2022-08-19T03:21:39;14.43;;;6.07;;
41546;SDS011;27271;45.412;10.852;2022-08-19T03:25:02;10.30;;;5.72;;
41546;SDS011;27271;45.412;10.852;2022-08-19T03:28:25;13.80;;;6.10;;
41546;SDS011;27271;45.412;10.852;2022-08-19T03:31:49;15.27;;;6.18;;
41546;SDS011;27271;45.412;10.852;2022-08-19T03:35:14;15.45;;;5.95;;
41546;SDS011;27271;45.412;10.852;2022-08-19T03:38:39;12.05;;;6.15;;
41546;SDS011;27271;45.412;10.852;2022-08-19T03:42:06;10.88;;;5.40;;
41546;SDS011;27271;45.412;10.852;2022-08-19T03:45:59;13.13;;;5.75;;
41546;SDS011;27271;45.412;10.852;2022-08-19T03:49:32;9.05;;;5.45;;
41546;SDS011;27271;45.412;10.852;2022-08-19T03:52:57;10.90;;;5.20;;
41546;SDS011;27271;45.412;10.852;2022-08-19T03:56:21;10.55;;;5.38;;
41546;SDS011;27271;45.412;10.852;2022-08-19T03:59:44;9.40;;;5.68;;
41546;SDS011;27271;45.412;10.852;2022-08-19T04:03:07;7.70;;;5.03;;
41546;SDS011;27271;45.412;10.852;2022-08-19T04:06:32;11.50;;;5.32;;
41546;SDS011;27271;45.412;10.852;2022-08-19T04:10:00;9.02;;;4.40;;
41546;SDS011;27271;45.412;10.852;2022-08-19T04:13:22;5.85;;;4.20;;
41546;SDS011;27271;45.412;10.852;2022-08-19T04:16:46;13.38;;;5.72;;
41546;SDS011;27271;45.412;10.852;2022-08-19T04:20:10;11.07;;;4.32;;
41546;SDS011;27271;45.412;10.852;2022-08-19T04:23:34;8.80;;;4.57;;
41546;SDS011;27271;45.412;10.852;2022-08-19T04:27:06;7.72;;;4.45;;
41546;SDS011;27271;45.412;10.852;2022-08-19T04:30:30;10.75;;;4.85;;
41546;SDS011;27271;45.412;10.852;2022-08-19T04:34:00;12.30;;;6.15;;
41546;SDS011;27271;45.412;10.852;2022-08-19T04:37:23;20.20;;;8.40;;
41546;SDS011;27271;45.412;10.852;2022-08-19T04:40:53;23.80;;;9.23;;
41546;SDS011;27271;45.412;10.852;2022-08-19T04:44:45;18.67;;;6.30;;
41546;SDS011;27271;45.412;10.852;2022-08-19T04:48:07;19.75;;;6.47;;
41546;SDS011;27271;45.412;10.852;2022-08-19T04:51:48;14.00;;;6.47;;
41546;SDS011;27271;45.412;10.852;2022-08-19T04:55:12;15.90;;;7.30;;
41546;SDS011;27271;45.412;10.852;2022-08-19T04:58:37;14.25;;;5.90;;
41546;SDS011;27271;45.412;10.852;2022-08-19T05:02:04;14.93;;;5.78;;
41546;SDS011;27271;45.412;10.852;2022-08-19T05:05:29;14.23;;;5.93;;
41546;SDS011;27271;45.412;10.852;2022-08-19T05:09:05;13.35;;;6.13;;
41546;SDS011;27271;45.412;10.852;2022-08-19T05:12:28;12.13;;;5.25;;
41546;SDS011;27271;45.412;10.852;2022-08-19T05:15:58;12.73;;;5.03;;
41546;SDS011;27271;45.412;10.852;2022-08-19T05:19:21;10.77;;;4.47;;
41546;SDS011;27271;45.412;10.852;2022-08-19T05:23:01;11.32;;;5.03;;
41546;SDS011;27271;45.412;10.852;2022-08-19T05:26:42;7.47;;;4.97;;
41546;SDS011;27271;45.412;10.852;2022-08-19T05:30:09;9.73;;;5.60;;
41546;SDS011;27271;45.412;10.852;2022-08-19T05:33:33;12.93;;;6.47;;
41546;SDS011;27271;45.412;10.852;2022-08-19T05:36:56;11.95;;;6.22;;
41546;SDS011;27271;45.412;10.852;2022-08-19T05:40:20;17.92;;;7.00;;
41546;SDS011;27271;45.412;10.852;2022-08-19T05:43:43;11.05;;;6.63;;
41546;SDS011;27271;45.412;10.852;2022-08-19T05:47:06;13.35;;;6.55;;
41546;SDS011;27271;45.412;10.852;2022-08-19T05:50:30;12.98;;;6.40;;
41546;SDS011;27271;45.412;10.852;2022-08-19T05:53:52;13.75;;;6.65;;
41546;SDS011;27271;45.412;10.852;2022-08-19T05:57:15;19.13;;;6.15;;
41546;SDS011;27271;45.412;10.852;2022-08-19T06:00:37;12.95;;;5.88;;
41546;SDS011;27271;45.412;10.852;2022-08-19T06:04:05;11.98;;;6.30;;
41546;SDS011;27271;45.412;10.852;2022-08-19T06:10:59;16.55;;;6.85;;
41546;SDS011;27271;45.412;10.852;2022-08-19T06:14:35;14.48;;;7.55;;
41546;SDS011;27271;45.412;10.852;2022-08-19T06:18:02;14.27;;;7.60;;
41546;SDS011;27271;45.412;10.852;2022-08-19T06:21:27;16.23;;;7.65;;
41546;SDS011;27271;45.412;10.852;2022-08-19T06:24:51;15.35;;;7.88;;
41546;SDS011;27271;45.412;10.852;2022-08-19T06:28:16;16.02;;;7.55;;
41546;SDS011;27271;45.412;10.852;2022-08-19T06:31:47;16.95;;;7.65;;
41546;SDS011;27271;45.412;10.852;2022-08-19T06:35:14;17.95;;;9.10;;
41546;SDS011;27271;45.412;10.852;2022-08-19T06:38:38;18.20;;;9.07;;
41546;SDS011;27271;45.412;10.852;2022-08-19T06:42:02;20.42;;;10.45;;
41546;SDS011;27271;45.412;10.852;2022-08-19T06:45:30;22.45;;;10.35;;
41546;SDS011;27271;45.412;10.852;2022-08-19T06:48:57;20.35;;;11.00;;
41546;SDS011;27271;45.412;10.852;2022-08-19T06:52:22;23.75;;;10.75;;
41546;SDS011;27271;45.412;10.852;2022-08-19T06:55:55;20.92;;;11.38;;
41546;SDS011;27271;45.412;10.852;2022-08-19T06:59:32;20.13;;;11.00;;
41546;SDS011;27271;45.412;10.852;2022-08-19T07:02:55;24.30;;;12.48;;
41546;SDS011;27271;45.412;10.852;2022-08-19T07:06:23;23.17;;;11.80;;
41546;SDS011;27271;45.412;10.852;2022-08-19T07:10:05;20.75;;;11.68;;
41546;SDS011;27271;45.412;10.852;2022-08-19T07:13:31;18.17;;;10.90;;
41546;SDS011;27271;45.412;10.852;2022-08-19T07:17:01;19.95;;;11.35;;
41546;SDS011;27271;45.412;10.852;2022-08-19T07:20:28;19.13;;;9.88;;
41546;SDS011;27271;45.412;10.852;2022-08-19T07:24:05;14.88;;;9.27;;
41546;SDS011;27271;45.412;10.852;2022-08-19T07:27:39;18.20;;;9.07;;
41546;SDS011;27271;45.412;10.852;2022-08-19T07:31:16;19.20;;;8.55;;
41546;SDS011;27271;45.412;10.852;2022-08-19T07:34:44;19.40;;;10.18;;
41546;SDS011;27271;45.412;10.852;2022-08-19T07:38:11;16.40;;;9.00;;
41546;SDS011;27271;45.412;10.852;2022-08-19T07:41:37;19.35;;;9.05;;
41546;SDS011;27271;45.412;10.852;2022-08-19T07:45:02;14.63;;;7.80;;
41546;SDS011;27271;45.412;10.852;2022-08-19T07:48:27;11.20;;;5.40;;
41546;SDS011;27271;45.412;10.852;2022-08-19T07:51:59;12.20;;;4.03;;
41546;SDS011;27271;45.412;10.852;2022-08-19T07:55:30;12.82;;;4.05;;
41546;SDS011;27271;45.412;10.852;2022-08-19T07:59:04;11.18;;;4.00;;
41546;SDS011;27271;45.412;10.852;2022-08-19T08:02:28;8.07;;;4.38;;
41546;SDS011;27271;45.412;10.852;2022-08-19T08:05:53;12.50;;;3.80;;
41546;SDS011;27271;45.412;10.852;2022-08-19T08:09:35;7.88;;;4.00;;
41546;SDS011;27271;45.412;10.852;2022-08-19T08:13:00;9.25;;;3.88;;
41546;SDS011;27271;45.412;10.852;2022-08-19T08:16:34;19.00;;;3.85;;
41546;SDS011;27271;45.412;10.852;2022-08-19T08:20:07;6.47;;;3.70;;
41546;SDS011;27271;45.412;10.852;2022-08-19T08:23:29;7.03;;;3.35;;
41546;SDS011;27271;45.412;10.852;2022-08-19T08:26:55;8.73;;;3.97;;
41546;SDS011;27271;45.412;10.852;2022-08-19T08:30:22;8.63;;;4.07;;
41546;SDS011;27271;45.412;10.852;2022-08-19T08:33:49;9.15;;;4.03;;
41546;SDS011;27271;45.412;10.852;2022-08-19T08:37:16;7.32;;;4.85;;
41546;SDS011;27271;45.412;10.852;2022-08-19T08:40:47;13.70;;;5.50;;
41546;SDS011;27271;45.412;10.852;2022-08-19T08:44:14;12.85;;;7.30;;
41546;SDS011;27271;45.412;10.852;2022-08-19T08:47:58;12.18;;;8.23;;
41546;SDS011;27271;45.412;10.852;2022-08-19T08:52:00;11.63;;;7.88;;
41546;SDS011;27271;45.412;10.852;2022-08-19T08:55:58;12.82;;;9.00;;
41546;SDS011;27271;45.412;10.852;2022-08-19T08:59:38;13.68;;;9.32;;
41546;SDS011;27271;45.412;10.852;2022-08-19T09:03:16;15.80;;;8.03;;
41546;SDS011;27271;45.412;10.852;2022-08-19T09:23:17;8.50;;;5.53;;
41546;SDS011;27271;45.412;10.852;2022-08-19T09:37:06;11.10;;;4.57;;
41546;SDS011;27271;45.412;10.852;2022-08-19T09:40:52;7.65;;;5.00;;
41546;SDS011;27271;45.412;10.852;2022-08-19T09:45:10;9.27;;;5.25;;
41546;SDS011;27271;45.412;10.852;2022-08-19T09:49:16;8.18;;;5.45;;
41546;SDS011;27271;45.412;10.852;2022-08-19T09:57:28;10.80;;;6.38;;
41546;SDS011;27271;45.412;10.852;2022-08-19T10:05:30;8.48;;;5.55;;
41546;SDS011;27271;45.412;10.852;2022-08-19T10:10:04;11.95;;;6.05;;
41546;SDS011;27271;45.412;10.852;2022-08-19T10:13:31;10.30;;;6.10;;
41546;SDS011;27271;45.412;10.852;2022-08-19T10:16:58;11.35;;;6.38;;
41546;SDS011;27271;45.412;10.852;2022-08-19T10:20:42;8.50;;;6.13;;
41546;SDS011;27271;45.412;10.852;2022-08-19T10:24:33;9.98;;;6.05;;
41546;SDS011;27271;45.412;10.852;2022-08-19T10:28:05;9.60;;;7.20;;
41546;SDS011;27271;45.412;10.852;2022-08-19T10:31:32;13.23;;;6.45;;
41546;SDS011;27271;45.412;10.852;2022-08-19T10:35:20;15.95;;;7.00;;
41546;SDS011;27271;45.412;10.852;2022-08-19T10:38:49;12.70;;;7.25;;
41546;SDS011;27271;45.412;10.852;2022-08-19T10:42:17;11.95;;;6.97;;
41546;SDS011;27271;45.412;10.852;2022-08-19T10:46:17;14.60;;;7.15;;
41546;SDS011;27271;45.412;10.852;2022-08-19T10:50:57;13.60;;;8.07;;
41546;SDS011;27271;45.412;10.852;2022-08-19T10:59:27;13.57;;;7.57;;
41546;SDS011;27271;45.412;10.852;2022-08-19T11:03:25;15.15;;;8.30;;
41546;SDS011;27271;45.412;10.852;2022-08-19T11:07:07;12.25;;;7.40;;
41546;SDS011;27271;45.412;10.852;2022-08-19T11:10:35;10.98;;;7.40;;
41546;SDS011;27271;45.412;10.852;2022-08-19T11:15:29;12.82;;;8.02;;
41546;SDS011;27271;45.412;10.852;2022-08-19T11:19:19;13.10;;;8.50;;
41546;SDS011;27271;45.412;10.852;2022-08-19T11:23:18;10.98;;;7.70;;
41546;SDS011;27271;45.412;10.852;2022-08-19T11:27:19;15.55;;;9.15;;
41546;SDS011;27271;45.412;10.852;2022-08-19T11:32:11;11.93;;;8.93;;
41546;SDS011;27271;45.412;10.852;2022-08-19T11:35:57;12.82;;;8.02;;
41546;SDS011;27271;45.412;10.852;2022-08-19T11:39:45;11.57;;;7.65;;
41546;SDS011;27271;45.412;10.852;2022-08-19T11:44:09;10.60;;;6.55;;
41546;SDS011;27271;45.412;10.852;2022-08-19T11:47:53;9.15;;;5.28;;
41546;SDS011;27271;45.412;10.852;2022-08-19T11:56:23;7.50;;;4.63;;
41546;SDS011;27271;45.412;10.852;2022-08-19T12:00:22;7.38;;;4.38;;
41546;SDS011;27271;45.412;10.852;2022-08-19T12:09:15;6.55;;;3.50;;
41546;SDS011;27271;45.412;10.852;2022-08-19T12:14:16;4.55;;;3.10;;
41546;SDS011;27271;45.412;10.852;2022-08-19T12:18:20;5.22;;;3.08;;
41546;SDS011;27271;45.412;10.852;2022-08-19T12:22:17;6.00;;;2.33;;
41546;SDS011;27271;45.412;10.852;2022-08-19T12:25:44;3.95;;;2.15;;
41546;SDS011;27271;45.412;10.852;2022-08-19T12:30:07;3.55;;;2.00;;
41546;SDS011;27271;45.412;10.852;2022-08-19T12:38:54;4.68;;;2.15;;
41546;SDS011;27271;45.412;10.852;2022-08-19T12:48:05;4.38;;;1.75;;
41546;SDS011;27271;45.412;10.852;2022-08-19T12:51:50;3.05;;;2.58;;
41546;SDS011;27271;45.412;10.852;2022-08-19T12:55:27;3.22;;;2.25;;
41546;SDS011;27271;45.412;10.852;2022-08-19T12:59:02;3.60;;;2.42;;
41546;SDS011;27271;45.412;10.852;2022-08-19T13:02:27;4.10;;;2.90;;
41546;SDS011;27271;45.412;10.852;2022-08-19T13:05:51;3.40;;;2.92;;
41546;SDS011;27271;45.412;10.852;2022-08-19T13:09:14;5.47;;;3.50;;
41546;SDS011;27271;45.412;10.852;2022-08-19T13:12:39;3.78;;;2.67;;
41546;SDS011;27271;45.412;10.852;2022-08-19T13:16:03;3.42;;;2.40;;
41546;SDS011;27271;45.412;10.852;2022-08-19T13:19:30;4.63;;;3.30;;
41546;SDS011;27271;45.412;10.852;2022-08-19T13:22:54;5.47;;;2.72;;
41546;SDS011;27271;45.412;10.852;2022-08-19T13:26:20;3.85;;;3.13;;
41546;SDS011;27271;45.412;10.852;2022-08-19T13:29:43;4.70;;;3.65;;
41546;SDS011;27271;45.412;10.852;2022-08-19T13:33:24;5.88;;;3.47;;
41546;SDS011;27271;45.412;10.852;2022-08-19T13:36:51;8.05;;;4.65;;
41546;SDS011;27271;45.412;10.852;2022-08-19T13:40:20;3.97;;;3.15;;
41546;SDS011;27271;45.412;10.852;2022-08-19T13:43:46;4.00;;;2.85;;
41546;SDS011;27271;45.412;10.852;2022-08-19T13:47:08;6.80;;;4.25;;
41546;SDS011;27271;45.412;10.852;2022-08-19T13:50:35;6.55;;;3.38;;
41546;SDS011;27271;45.412;10.852;2022-08-19T13:54:03;4.65;;;3.28;;
41546;SDS011;27271;45.412;10.852;2022-08-19T13:57:26;4.00;;;3.20;;
41546;SDS011;27271;45.412;10.852;2022-08-19T14:00:48;3.92;;;3.00;;
41546;SDS011;27271;45.412;10.852;2022-08-19T14:04:12;5.18;;;3.22;;
41546;SDS011;27271;45.412;10.852;2022-08-19T14:07:38;3.22;;;2.40;;
41546;SDS011;27271;45.412;10.852;2022-08-19T14:11:01;4.47;;;3.20;;
41546;SDS011;27271;45.412;10.852;2022-08-19T14:14:27;5.28;;;3.58;;
41546;SDS011;27271;45.412;10.852;2022-08-19T14:17:51;4.85;;;3.67;;
41546;SDS011;27271;45.412;10.852;2022-08-19T14:21:20;3.60;;;2.53;;
41546;SDS011;27271;45.412;10.852;2022-08-19T14:24:51;3.70;;;3.00;;
41546;SDS011;27271;45.412;10.852;2022-08-19T14:28:15;3.90;;;2.95;;
41546;SDS011;27271;45.412;10.852;2022-08-19T14:31:38;3.78;;;2.67;;
41546;SDS011;27271;45.412;10.852;2022-08-19T14:35:08;3.35;;;2.95;;
41546;SDS011;27271;45.412;10.852;2022-08-19T14:38:32;2.90;;;2.60;;
41546;SDS011;27271;45.412;10.852;2022-08-19T14:41:59;3.80;;;2.78;;
41546;SDS011;27271;45.412;10.852;2022-08-19T14:45:21;4.15;;;3.05;;
41546;SDS011;27271;45.412;10.852;2022-08-19T14:48:44;3.17;;;2.13;;
41546;SDS011;27271;45.412;10.852;2022-08-19T14:52:12;3.03;;;1.85;;
41546;SDS011;27271;45.412;10.852;2022-08-19T14:55:35;3.35;;;2.15;;
41546;SDS011;27271;45.412;10.852;2022-08-19T14:58:59;2.70;;;1.90;;
41546;SDS011;27271;45.412;10.852;2022-08-19T15:02:22;5.95;;;2.42;;
41546;SDS011;27271;45.412;10.852;2022-08-19T15:05:55;4.90;;;2.33;;
41546;SDS011;27271;45.412;10.852;2022-08-19T15:09:19;5.32;;;2.30;;
41546;SDS011;27271;45.412;10.852;2022-08-19T15:12:45;4.47;;;2.30;;
41546;SDS011;27271;45.412;10.852;2022-08-19T15:16:12;2.92;;;2.30;;
41546;SDS011;27271;45.412;10.852;2022-08-19T15:19:38;3.13;;;1.90;;
41546;SDS011;27271;45.412;10.852;2022-08-19T15:23:02;2.88;;;1.98;;
41546;SDS011;27271;45.412;10.852;2022-08-19T15:26:28;3.55;;;2.03;;
41546;SDS011;27271;45.412;10.852;2022-08-19T15:29:54;3.47;;;1.80;;
41546;SDS011;27271;45.412;10.852;2022-08-19T15:33:22;1.95;;;1.60;;
41546;SDS011;27271;45.412;10.852;2022-08-19T15:40:21;2.70;;;1.60;;
41546;SDS011;27271;45.412;10.852;2022-08-19T15:43:46;2.63;;;0.93;;
41546;SDS011;27271;45.412;10.852;2022-08-19T15:47:11;1.45;;;1.08;;
41546;SDS011;27271;45.412;10.852;2022-08-19T15:50:36;1.08;;;0.98;;
41546;SDS011;27271;45.412;10.852;2022-08-19T15:54:09;1.70;;;0.90;;
41546;SDS011;27271;45.412;10.852;2022-08-19T15:57:36;3.85;;;1.35;;
41546;SDS011;27271;45.412;10.852;2022-08-19T16:01:30;2.05;;;1.00;;
41546;SDS011;27271;45.412;10.852;2022-08-19T16:05:16;1.38;;;0.90;;
41546;SDS011;27271;45.412;10.852;2022-08-19T16:09:20;2.53;;;1.23;;
41546;SDS011;27271;45.412;10.852;2022-08-19T16:17:28;1.65;;;0.95;;
41546;SDS011;27271;45.412;10.852;2022-08-19T16:30:47;1.15;;;0.90;;
41546;SDS011;27271;45.412;10.852;2022-08-19T16:34:12;3.03;;;0.90;;
41546;SDS011;27271;45.412;10.852;2022-08-19T16:37:34;3.65;;;1.38;;
41546;SDS011;27271;45.412;10.852;2022-08-19T16:40:56;2.50;;;1.63;;
41546;SDS011;27271;45.412;10.852;2022-08-19T16:44:22;1.92;;;1.42;;
41546;SDS011;27271;45.412;10.852;2022-08-19T16:47:50;3.35;;;1.60;;
41546;SDS011;27271;45.412;10.852;2022-08-19T16:51:17;2.00;;;1.80;;
41546;SDS011;27271;45.412;10.852;2022-08-19T16:54:39;3.55;;;2.20;;
41546;SDS011;27271;45.412;10.852;2022-08-19T16:58:05;3.40;;;2.03;;
41546;SDS011;27271;45.412;10.852;2022-08-19T17:01:31;3.50;;;2.40;;
41546;SDS011;27271;45.412;10.852;2022-08-19T17:04:56;2.85;;;1.98;;
41546;SDS011;27271;45.412;10.852;2022-08-19T17:08:25;3.15;;;2.53;;
41546;SDS011;27271;45.412;10.852;2022-08-19T17:11:51;3.58;;;2.70;;
41546;SDS011;27271;45.412;10.852;2022-08-19T17:15:14;3.03;;;2.58;;
41546;SDS011;27271;45.412;10.852;2022-08-19T17:18:37;2.85;;;2.40;;
41546;SDS011;27271;45.412;10.852;2022-08-19T17:22:04;3.75;;;2.38;;
41546;SDS011;27271;45.412;10.852;2022-08-19T17:25:31;3.28;;;2.67;;
41546;SDS011;27271;45.412;10.852;2022-08-19T17:28:56;3.25;;;2.58;;
41546;SDS011;27271;45.412;10.852;2022-08-19T17:32:20;6.03;;;3.00;;
41546;SDS011;27271;45.412;10.852;2022-08-19T17:35:46;4.53;;;3.13;;
41546;SDS011;27271;45.412;10.852;2022-08-19T17:39:12;5.30;;;3.00;;
41546;SDS011;27271;45.412;10.852;2022-08-19T17:42:35;5.05;;;2.47;;
41546;SDS011;27271;45.412;10.852;2022-08-19T17:45:59;5.78;;;2.40;;
41546;SDS011;27271;45.412;10.852;2022-08-19T17:49:26;4.95;;;2.28;;
41546;SDS011;27271;45.412;10.852;2022-08-19T17:52:49;6.32;;;1.98;;
41546;SDS011;27271;45.412;10.852;2022-08-19T17:56:15;2.50;;;2.22;;
41546;SDS011;27271;45.412;10.852;2022-08-19T17:59:41;7.28;;;2.25;;
41546;SDS011;27271;45.412;10.852;2022-08-19T18:03:10;3.17;;;2.20;;
41546;SDS011;27271;45.412;10.852;2022-08-19T18:06:38;4.47;;;2.38;;
41546;SDS011;27271;45.412;10.852;2022-08-19T18:10:13;4.43;;;2.45;;
41546;SDS011;27271;45.412;10.852;2022-08-19T18:13:36;3.95;;;2.38;;
41546;SDS011;27271;45.412;10.852;2022-08-19T18:17:00;6.70;;;3.58;;
41546;SDS011;27271;45.412;10.852;2022-08-19T18:20:30;6.75;;;4.13;;
41546;SDS011;27271;45.412;10.852;2022-08-19T18:23:53;6.80;;;3.80;;
41546;SDS011;27271;45.412;10.852;2022-08-19T18:27:23;6.07;;;3.70;;
41546;SDS011;27271;45.412;10.852;2022-08-19T18:30:46;6.53;;;4.30;;
41546;SDS011;27271;45.412;10.852;2022-08-19T18:34:31;10.77;;;5.70;;
41546;SDS011;27271;45.412;10.852;2022-08-19T18:37:59;5.72;;;4.60;;
41546;SDS011;27271;45.412;10.852;2022-08-19T18:41:42;7.53;;;4.57;;
41546;SDS011;27271;45.412;10.852;2022-08-19T18:45:23;7.00;;;4.90;;
41546;SDS011;27271;45.412;10.852;2022-08-19T18:49:04;8.75;;;5.30;;
41546;SDS011;27271;45.412;10.852;2022-08-19T18:52:36;5.97;;;4.65;;
41546;SDS011;27271;45.412;10.852;2022-08-19T18:56:09;6.45;;;4.22;;
41546;SDS011;27271;45.412;10.852;2022-08-19T18:59:55;6.85;;;3.40;;
41546;SDS011;27271;45.412;10.852;2022-08-19T19:03:23;5.15;;;3.20;;
41546;SDS011;27271;45.412;10.852;2022-08-19T19:06:50;5.72;;;3.20;;
41546;SDS011;27271;45.412;10.852;2022-08-19T19:10:12;5.10;;;3.42;;
41546;SDS011;27271;45.412;10.852;2022-08-19T19:13:40;5.20;;;3.25;;
41546;SDS011;27271;45.412;10.852;2022-08-19T19:17:53;4.50;;;3.72;;
41546;SDS011;27271;45.412;10.852;2022-08-19T19:21:45;6.40;;;3.88;;
41546;SDS011;27271;45.412;10.852;2022-08-19T19:25:58;5.05;;;3.83;;
41546;SDS011;27271;45.412;10.852;2022-08-19T19:29:23;5.60;;;4.05;;
41546;SDS011;27271;45.412;10.852;2022-08-19T19:32:48;5.53;;;4.15;;
41546;SDS011;27271;45.412;10.852;2022-08-19T19:37:01;8.02;;;4.15;;
41546;SDS011;27271;45.412;10.852;2022-08-19T19:44:18;4.07;;;3.38;;
41546;SDS011;27271;45.412;10.852;2022-08-19T19:47:53;4.70;;;3.75;;
41546;SDS011;27271;45.412;10.852;2022-08-19T19:51:16;5.30;;;3.75;;
41546;SDS011;27271;45.412;10.852;2022-08-19T19:58:50;3.78;;;2.95;;
41546;SDS011;27271;45.412;10.852;2022-08-19T20:02:21;4.55;;;2.53;;
41546;SDS011;27271;45.412;10.852;2022-08-19T20:05:46;3.15;;;2.67;;
41546;SDS011;27271;45.412;10.852;2022-08-19T20:09:15;3.90;;;2.28;;
41546;SDS011;27271;45.412;10.852;2022-08-19T20:12:40;3.47;;;2.55;;
41546;SDS011;27271;45.412;10.852;2022-08-19T20:16:02;3.75;;;2.85;;
41546;SDS011;27271;45.412;10.852;2022-08-19T20:19:25;5.15;;;2.90;;
41546;SDS011;27271;45.412;10.852;2022-08-19T20:22:55;3.08;;;2.55;;
41546;SDS011;27271;45.412;10.852;2022-08-19T20:26:41;10.25;;;2.65;;
41546;SDS011;27271;45.412;10.852;2022-08-19T20:30:53;5.32;;;2.60;;
41546;SDS011;27271;45.412;10.852;2022-08-19T20:34:29;3.88;;;1.98;;
41546;SDS011;27271;45.412;10.852;2022-08-19T20:41:46;3.60;;;2.28;;
41546;SDS011;27271;45.412;10.852;2022-08-19T20:45:23;2.90;;;2.20;;
41546;SDS011;27271;45.412;10.852;2022-08-19T20:48:54;4.00;;;2.25;;
41546;SDS011;27271;45.412;10.852;2022-08-19T20:52:20;4.97;;;2.50;;
41546;SDS011;27271;45.412;10.852;2022-08-19T20:55:46;3.90;;;2.60;;
41546;SDS011;27271;45.412;10.852;2022-08-19T20:59:20;4.82;;;2.80;;
41546;SDS011;27271;45.412;10.852;2022-08-19T21:02:57;4.03;;;2.60;;
41546;SDS011;27271;45.412;10.852;2022-08-19T21:06:21;6.10;;;2.47;;
41546;SDS011;27271;45.412;10.852;2022-08-19T21:09:59;3.13;;;2.17;;
41546;SDS011;27271;45.412;10.852;2022-08-19T21:13:39;2.70;;;1.90;;
41546;SDS011;27271;45.412;10.852;2022-08-19T21:17:14;5.70;;;2.40;;
41546;SDS011;27271;45.412;10.852;2022-08-19T21:20:41;2.72;;;1.92;;
41546;SDS011;27271;45.412;10.852;2022-08-19T21:24:09;4.25;;;2.10;;
41546;SDS011;27271;45.412;10.852;2022-08-19T21:27:32;6.70;;;1.92;;
41546;SDS011;27271;45.412;10.852;2022-08-19T21:31:01;3.40;;;1.98;;
41546;SDS011;27271;45.412;10.852;2022-08-19T21:34:26;3.42;;;1.90;;
41546;SDS011;27271;45.412;10.852;2022-08-19T21:37:58;5.13;;;2.25;;
41546;SDS011;27271;45.412;10.852;2022-08-19T21:41:27;3.67;;;2.03;;
41546;SDS011;27271;45.412;10.852;2022-08-19T21:44:55;5.55;;;2.15;;
41546;SDS011;27271;45.412;10.852;2022-08-19T21:48:17;2.30;;;1.52;;
41546;SDS011;27271;45.412;10.852;2022-08-19T21:51:41;3.40;;;1.88;;
41546;SDS011;27271;45.412;10.852;2022-08-19T21:55:10;3.63;;;2.10;;
41546;SDS011;27271;45.412;10.852;2022-08-19T21:58:33;3.20;;;1.75;;
41546;SDS011;27271;45.412;10.852;2022-08-19T22:02:07;4.00;;;1.90;;
41546;SDS011;27271;45.412;10.852;2022-08-19T22:05:41;3.15;;;1.85;;
41546;SDS011;27271;45.412;10.852;2022-08-19T22:09:10;3.67;;;1.50;;
41546;SDS011;27271;45.412;10.852;2022-08-19T22:12:37;2.92;;;1.73;;
41546;SDS011;27271;45.412;10.852;2022-08-19T22:16:12;5.55;;;1.70;;
41546;SDS011;27271;45.412;10.852;2022-08-19T22:19:38;4.15;;;2.08;;
41546;SDS011;27271;45.412;10.852;2022-08-19T22:23:05;2.72;;;1.90;;